sensor_id;sensor_type;location;lat;lon;timestamp;P1;durP1;ratioP1;P2;durP2;ratioP2
8413;SDS011;4244;48.684;9.028;2023-06-22T00:01:09;11.63;;;10.60;;
8413;SDS011;4244;48.684;9.028;2023-06-22T00:03:34;13.77;;;10.93;;
8413;SDS011;4244;48.684;9.028;2023-06-22T00:06:00;11.00;;;9.80;;
8413;SDS011;4244;48.684;9.028;2023-06-22T00:08:25;11.93;;;10.83;;
8413;SDS011;4244;48.684;9.028;2023-06-22T00:10:51;11.07;;;10.10;;
8413;SDS011;4244;48.684;9.028;2023-06-22T00:13:17;10.70;;;9.60;;
8413;SDS011;4244;48.684;9.028;2023-06-22T00:15:43;11.40;;;10.40;;
8413;SDS011;4244;48.684;9.028;2023-06-22T00:18:09;10.83;;;9.83;;
8413;SDS011;4244;48.684;9.028;2023-06-22T00:20:35;11.30;;;10.27;;
8413;SDS011;4244;48.684;9.028;2023-06-22T00:23:04;12.37;;;11.27;;
8413;SDS011;4244;48.684;9.028;2023-06-22T00:25:42;13.40;;;12.20;;
8413;SDS011;4244;48.684;9.028;2023-06-22T00:28:08;11.20;;;10.10;;
8413;SDS011;4244;48.684;9.028;2023-06-22T00:30:34;10.67;;;9.77;;
8413;SDS011;4244;48.684;9.028;2023-06-22T00:33:00;12.47;;;11.27;;
8413;SDS011;4244;48.684;9.028;2023-06-22T00:35:26;12.83;;;11.10;;
8413;SDS011;4244;48.684;9.028;2023-06-22T00:37:54;12.83;;;11.63;;
8413;SDS011;4244;48.684;9.028;2023-06-22T00:40:28;12.50;;;11.20;;
8413;SDS011;4244;48.684;9.028;2023-06-22T00:42:55;13.30;;;10.70;;
8413;SDS011;4244;48.684;9.028;2023-06-22T00:45:23;11.20;;;10.20;;
8413;SDS011;4244;48.684;9.028;2023-06-22T00:47:53;12.37;;;11.17;;
8413;SDS011;4244;48.684;9.028;2023-06-22T00:50:20;12.57;;;11.40;;
8413;SDS011;4244;48.684;9.028;2023-06-22T00:52:51;12.03;;;10.87;;
8413;SDS011;4244;48.684;9.028;2023-06-22T00:55:24;13.17;;;10.97;;
8413;SDS011;4244;48.684;9.028;2023-06-22T00:57:51;12.30;;;11.30;;
8413;SDS011;4244;48.684;9.028;2023-06-22T01:00:20;13.30;;;12.00;;
8413;SDS011;4244;48.684;9.028;2023-06-22T01:02:49;16.77;;;10.80;;
8413;SDS011;4244;48.684;9.028;2023-06-22T01:05:17;17.63;;;10.97;;
8413;SDS011;4244;48.684;9.028;2023-06-22T01:10:36;11.67;;;10.57;;
8413;SDS011;4244;48.684;9.028;2023-06-22T01:16:29;11.37;;;10.37;;
8413;SDS011;4244;48.684;9.028;2023-06-22T01:18:57;12.27;;;10.93;;
8413;SDS011;4244;48.684;9.028;2023-06-22T01:21:24;11.73;;;10.47;;
8413;SDS011;4244;48.684;9.028;2023-06-22T01:29:24;11.03;;;9.97;;
8413;SDS011;4244;48.684;9.028;2023-06-22T01:31:51;10.67;;;9.67;;
8413;SDS011;4244;48.684;9.028;2023-06-22T01:34:18;10.50;;;9.70;;
8413;SDS011;4244;48.684;9.028;2023-06-22T01:36:45;10.90;;;9.90;;
8413;SDS011;4244;48.684;9.028;2023-06-22T01:39:11;11.30;;;10.37;;
8413;SDS011;4244;48.684;9.028;2023-06-22T01:41:37;10.67;;;9.67;;
8413;SDS011;4244;48.684;9.028;2023-06-22T01:44:05;11.53;;;10.43;;
8413;SDS011;4244;48.684;9.028;2023-06-22T01:46:33;12.10;;;10.90;;
8413;SDS011;4244;48.684;9.028;2023-06-22T01:48:59;13.20;;;11.90;;
8413;SDS011;4244;48.684;9.028;2023-06-22T01:51:25;12.60;;;10.50;;
8413;SDS011;4244;48.684;9.028;2023-06-22T01:53:51;11.13;;;10.03;;
8413;SDS011;4244;48.684;9.028;2023-06-22T01:56:16;10.87;;;9.87;;
8413;SDS011;4244;48.684;9.028;2023-06-22T01:58:47;11.63;;;10.43;;
8413;SDS011;4244;48.684;9.028;2023-06-22T02:01:18;11.17;;;10.07;;
8413;SDS011;4244;48.684;9.028;2023-06-22T02:03:50;13.60;;;11.40;;
8413;SDS011;4244;48.684;9.028;2023-06-22T02:06:31;12.10;;;11.07;;
8413;SDS011;4244;48.684;9.028;2023-06-22T02:09:01;9.77;;;8.87;;
8413;SDS011;4244;48.684;9.028;2023-06-22T02:11:28;12.07;;;10.37;;
8413;SDS011;4244;48.684;9.028;2023-06-22T02:13:55;13.30;;;11.07;;
8413;SDS011;4244;48.684;9.028;2023-06-22T02:16:21;10.10;;;9.20;;
8413;SDS011;4244;48.684;9.028;2023-06-22T02:18:48;10.87;;;9.73;;
8413;SDS011;4244;48.684;9.028;2023-06-22T02:21:20;10.70;;;9.70;;
8413;SDS011;4244;48.684;9.028;2023-06-22T02:23:46;11.07;;;9.50;;
8413;SDS011;4244;48.684;9.028;2023-06-22T02:26:12;9.70;;;8.80;;
8413;SDS011;4244;48.684;9.028;2023-06-22T02:28:38;11.53;;;10.43;;
8413;SDS011;4244;48.684;9.028;2023-06-22T02:31:04;11.73;;;9.40;;
8413;SDS011;4244;48.684;9.028;2023-06-22T02:33:29;11.30;;;10.37;;
8413;SDS011;4244;48.684;9.028;2023-06-22T02:35:55;10.10;;;9.10;;
8413;SDS011;4244;48.684;9.028;2023-06-22T02:38:21;10.50;;;9.40;;
8413;SDS011;4244;48.684;9.028;2023-06-22T02:40:49;10.07;;;9.07;;
8413;SDS011;4244;48.684;9.028;2023-06-22T02:43:15;12.00;;;10.80;;
8413;SDS011;4244;48.684;9.028;2023-06-22T02:45:40;10.67;;;9.67;;
8413;SDS011;4244;48.684;9.028;2023-06-22T02:48:06;10.17;;;9.27;;
8413;SDS011;4244;48.684;9.028;2023-06-22T02:50:32;10.70;;;9.80;;
8413;SDS011;4244;48.684;9.028;2023-06-22T02:52:57;11.13;;;10.03;;
8413;SDS011;4244;48.684;9.028;2023-06-22T02:55:23;9.50;;;8.60;;
8413;SDS011;4244;48.684;9.028;2023-06-22T02:57:49;10.97;;;9.17;;
8413;SDS011;4244;48.684;9.028;2023-06-22T03:00:17;12.37;;;9.17;;
8413;SDS011;4244;48.684;9.028;2023-06-22T03:02:44;12.47;;;10.17;;
8413;SDS011;4244;48.684;9.028;2023-06-22T03:05:14;13.30;;;9.07;;
8413;SDS011;4244;48.684;9.028;2023-06-22T03:07:43;10.60;;;9.60;;
8413;SDS011;4244;48.684;9.028;2023-06-22T03:10:09;10.17;;;9.10;;
8413;SDS011;4244;48.684;9.028;2023-06-22T03:12:36;11.20;;;10.10;;
8413;SDS011;4244;48.684;9.028;2023-06-22T03:15:03;9.70;;;8.70;;
8413;SDS011;4244;48.684;9.028;2023-06-22T03:17:36;10.37;;;9.40;;
8413;SDS011;4244;48.684;9.028;2023-06-22T03:20:03;10.77;;;9.77;;
8413;SDS011;4244;48.684;9.028;2023-06-22T03:22:43;9.60;;;8.70;;
8413;SDS011;4244;48.684;9.028;2023-06-22T03:25:08;10.80;;;9.17;;
8413;SDS011;4244;48.684;9.028;2023-06-22T03:27:36;10.73;;;9.73;;
8413;SDS011;4244;48.684;9.028;2023-06-22T03:30:02;10.23;;;9.23;;
8413;SDS011;4244;48.684;9.028;2023-06-22T03:32:28;10.50;;;9.27;;
8413;SDS011;4244;48.684;9.028;2023-06-22T03:34:53;10.67;;;9.67;;
8413;SDS011;4244;48.684;9.028;2023-06-22T03:37:19;12.00;;;10.67;;
8413;SDS011;4244;48.684;9.028;2023-06-22T03:39:45;14.17;;;11.43;;
8413;SDS011;4244;48.684;9.028;2023-06-22T03:42:10;13.83;;;10.70;;
8413;SDS011;4244;48.684;9.028;2023-06-22T03:44:36;12.70;;;11.50;;
8413;SDS011;4244;48.684;9.028;2023-06-22T03:47:02;11.97;;;10.97;;
8413;SDS011;4244;48.684;9.028;2023-06-22T03:49:29;11.87;;;10.87;;
8413;SDS011;4244;48.684;9.028;2023-06-22T03:51:54;12.67;;;11.57;;
8413;SDS011;4244;48.684;9.028;2023-06-22T03:54:20;14.07;;;11.53;;
8413;SDS011;4244;48.684;9.028;2023-06-22T03:56:46;11.57;;;10.50;;
8413;SDS011;4244;48.684;9.028;2023-06-22T03:59:11;10.83;;;9.93;;
8413;SDS011;4244;48.684;9.028;2023-06-22T04:01:37;12.20;;;11.10;;
8413;SDS011;4244;48.684;9.028;2023-06-22T04:04:02;12.37;;;11.23;;
8413;SDS011;4244;48.684;9.028;2023-06-22T04:06:28;12.13;;;11.00;;
8413;SDS011;4244;48.684;9.028;2023-06-22T04:08:54;12.13;;;11.03;;
8413;SDS011;4244;48.684;9.028;2023-06-22T04:11:20;11.60;;;10.60;;
8413;SDS011;4244;48.684;9.028;2023-06-22T04:13:45;12.27;;;11.07;;
8413;SDS011;4244;48.684;9.028;2023-06-22T04:16:11;11.83;;;10.63;;
8413;SDS011;4244;48.684;9.028;2023-06-22T04:18:36;12.60;;;11.50;;
8413;SDS011;4244;48.684;9.028;2023-06-22T04:21:02;11.97;;;10.77;;
8413;SDS011;4244;48.684;9.028;2023-06-22T04:23:28;12.67;;;11.57;;
8413;SDS011;4244;48.684;9.028;2023-06-22T04:25:53;14.00;;;11.90;;
8413;SDS011;4244;48.684;9.028;2023-06-22T04:28:21;12.97;;;11.73;;
8413;SDS011;4244;48.684;9.028;2023-06-22T04:30:47;13.23;;;11.93;;
8413;SDS011;4244;48.684;9.028;2023-06-22T04:33:14;12.57;;;11.27;;
8413;SDS011;4244;48.684;9.028;2023-06-22T04:35:40;11.03;;;10.13;;
8413;SDS011;4244;48.684;9.028;2023-06-22T04:38:08;11.73;;;10.63;;
8413;SDS011;4244;48.684;9.028;2023-06-22T04:40:34;11.70;;;10.60;;
8413;SDS011;4244;48.684;9.028;2023-06-22T04:43:00;11.93;;;10.83;;
8413;SDS011;4244;48.684;9.028;2023-06-22T04:45:28;13.20;;;11.93;;
8413;SDS011;4244;48.684;9.028;2023-06-22T04:47:57;12.70;;;11.37;;
8413;SDS011;4244;48.684;9.028;2023-06-22T04:50:22;10.33;;;9.37;;
8413;SDS011;4244;48.684;9.028;2023-06-22T04:52:49;11.67;;;10.67;;
8413;SDS011;4244;48.684;9.028;2023-06-22T04:55:15;11.83;;;10.70;;
8413;SDS011;4244;48.684;9.028;2023-06-22T04:57:43;11.63;;;10.50;;
8413;SDS011;4244;48.684;9.028;2023-06-22T05:00:13;12.23;;;11.07;;
8413;SDS011;4244;48.684;9.028;2023-06-22T05:02:44;11.90;;;10.70;;
8413;SDS011;4244;48.684;9.028;2023-06-22T05:05:10;11.90;;;10.80;;
8413;SDS011;4244;48.684;9.028;2023-06-22T05:07:39;11.80;;;10.50;;
8413;SDS011;4244;48.684;9.028;2023-06-22T05:10:08;12.20;;;10.90;;
8413;SDS011;4244;48.684;9.028;2023-06-22T05:12:35;10.43;;;9.30;;
8413;SDS011;4244;48.684;9.028;2023-06-22T05:15:01;10.30;;;9.30;;
8413;SDS011;4244;48.684;9.028;2023-06-22T05:17:26;10.53;;;9.53;;
8413;SDS011;4244;48.684;9.028;2023-06-22T05:19:52;12.13;;;10.67;;
8413;SDS011;4244;48.684;9.028;2023-06-22T05:22:18;11.53;;;10.33;;
8413;SDS011;4244;48.684;9.028;2023-06-22T05:24:44;8.83;;;7.93;;
8413;SDS011;4244;48.684;9.028;2023-06-22T05:27:10;12.50;;;9.50;;
8413;SDS011;4244;48.684;9.028;2023-06-22T05:29:36;9.43;;;8.53;;
8413;SDS011;4244;48.684;9.028;2023-06-22T05:32:02;10.23;;;9.23;;
8413;SDS011;4244;48.684;9.028;2023-06-22T05:34:28;9.70;;;8.80;;
8413;SDS011;4244;48.684;9.028;2023-06-22T05:36:54;10.17;;;9.17;;
8413;SDS011;4244;48.684;9.028;2023-06-22T05:39:19;9.50;;;8.53;;
8413;SDS011;4244;48.684;9.028;2023-06-22T05:41:45;10.00;;;9.00;;
8413;SDS011;4244;48.684;9.028;2023-06-22T05:44:11;9.43;;;8.63;;
8413;SDS011;4244;48.684;9.028;2023-06-22T05:46:41;9.20;;;8.30;;
8413;SDS011;4244;48.684;9.028;2023-06-22T05:49:12;9.10;;;8.17;;
8413;SDS011;4244;48.684;9.028;2023-06-22T05:51:38;7.93;;;7.23;;
8413;SDS011;4244;48.684;9.028;2023-06-22T05:54:04;9.17;;;8.27;;
8413;SDS011;4244;48.684;9.028;2023-06-22T05:56:29;9.90;;;8.67;;
8413;SDS011;4244;48.684;9.028;2023-06-22T05:58:55;8.70;;;7.90;;
8413;SDS011;4244;48.684;9.028;2023-06-22T06:01:21;9.27;;;7.97;;
8413;SDS011;4244;48.684;9.028;2023-06-22T06:03:47;9.20;;;7.97;;
8413;SDS011;4244;48.684;9.028;2023-06-22T06:06:15;11.47;;;7.77;;
8413;SDS011;4244;48.684;9.028;2023-06-22T06:08:53;8.67;;;7.77;;
8413;SDS011;4244;48.684;9.028;2023-06-22T06:11:19;9.97;;;7.93;;
8413;SDS011;4244;48.684;9.028;2023-06-22T06:13:45;13.13;;;8.73;;
8413;SDS011;4244;48.684;9.028;2023-06-22T06:16:10;10.23;;;7.60;;
8413;SDS011;4244;48.684;9.028;2023-06-22T06:18:36;7.67;;;7.00;;
8413;SDS011;4244;48.684;9.028;2023-06-22T06:21:02;8.43;;;7.47;;
8413;SDS011;4244;48.684;9.028;2023-06-22T06:23:28;9.27;;;8.37;;
8413;SDS011;4244;48.684;9.028;2023-06-22T06:25:53;10.13;;;8.43;;
8413;SDS011;4244;48.684;9.028;2023-06-22T06:28:19;7.73;;;6.67;;
8413;SDS011;4244;48.684;9.028;2023-06-22T06:30:45;12.40;;;8.10;;
8413;SDS011;4244;48.684;9.028;2023-06-22T06:33:12;10.17;;;8.63;;
8413;SDS011;4244;48.684;9.028;2023-06-22T06:35:38;9.27;;;8.27;;
8413;SDS011;4244;48.684;9.028;2023-06-22T06:38:03;8.13;;;7.43;;
8413;SDS011;4244;48.684;9.028;2023-06-22T06:40:29;8.77;;;7.27;;
8413;SDS011;4244;48.684;9.028;2023-06-22T06:42:55;9.20;;;7.87;;
8413;SDS011;4244;48.684;9.028;2023-06-22T06:45:21;11.57;;;7.60;;
8413;SDS011;4244;48.684;9.028;2023-06-22T06:47:48;8.37;;;7.13;;
8413;SDS011;4244;48.684;9.028;2023-06-22T06:50:14;8.17;;;7.37;;
8413;SDS011;4244;48.684;9.028;2023-06-22T06:52:40;7.47;;;6.70;;
8413;SDS011;4244;48.684;9.028;2023-06-22T06:55:07;8.73;;;7.80;;
8413;SDS011;4244;48.684;9.028;2023-06-22T06:57:36;9.63;;;7.23;;
8413;SDS011;4244;48.684;9.028;2023-06-22T07:00:06;7.70;;;6.93;;
8413;SDS011;4244;48.684;9.028;2023-06-22T07:02:40;10.17;;;7.40;;
8413;SDS011;4244;48.684;9.028;2023-06-22T07:05:07;9.60;;;7.73;;
8413;SDS011;4244;48.684;9.028;2023-06-22T07:07:33;7.47;;;6.80;;
8413;SDS011;4244;48.684;9.028;2023-06-22T07:10:02;11.77;;;7.27;;
8413;SDS011;4244;48.684;9.028;2023-06-22T07:12:28;7.07;;;6.33;;
8413;SDS011;4244;48.684;9.028;2023-06-22T07:14:53;6.67;;;6.07;;
8413;SDS011;4244;48.684;9.028;2023-06-22T07:17:22;10.20;;;7.13;;
8413;SDS011;4244;48.684;9.028;2023-06-22T07:19:48;8.40;;;7.60;;
8413;SDS011;4244;48.684;9.028;2023-06-22T07:22:13;7.97;;;6.40;;
8413;SDS011;4244;48.684;9.028;2023-06-22T07:24:39;9.37;;;6.37;;
8413;SDS011;4244;48.684;9.028;2023-06-22T07:27:05;9.67;;;7.13;;
8413;SDS011;4244;48.684;9.028;2023-06-22T07:29:31;11.13;;;8.17;;
8413;SDS011;4244;48.684;9.028;2023-06-22T07:31:58;9.20;;;6.57;;
8413;SDS011;4244;48.684;9.028;2023-06-22T07:34:25;8.10;;;7.23;;
8413;SDS011;4244;48.684;9.028;2023-06-22T07:36:51;9.00;;;7.23;;
8413;SDS011;4244;48.684;9.028;2023-06-22T07:39:17;8.43;;;7.73;;
8413;SDS011;4244;48.684;9.028;2023-06-22T07:41:42;7.03;;;6.33;;
8413;SDS011;4244;48.684;9.028;2023-06-22T07:44:08;9.10;;;7.57;;
8413;SDS011;4244;48.684;9.028;2023-06-22T07:46:34;9.87;;;7.17;;
8413;SDS011;4244;48.684;9.028;2023-06-22T07:48:59;8.07;;;6.80;;
8413;SDS011;4244;48.684;9.028;2023-06-22T07:51:26;9.07;;;8.17;;
8413;SDS011;4244;48.684;9.028;2023-06-22T07:53:51;12.00;;;7.73;;
8413;SDS011;4244;48.684;9.028;2023-06-22T07:56:17;8.50;;;7.53;;
8413;SDS011;4244;48.684;9.028;2023-06-22T07:58:45;10.33;;;6.40;;
8413;SDS011;4244;48.684;9.028;2023-06-22T08:01:12;7.73;;;6.93;;
8413;SDS011;4244;48.684;9.028;2023-06-22T08:03:38;7.90;;;6.50;;
8413;SDS011;4244;48.684;9.028;2023-06-22T08:06:04;8.90;;;7.20;;
8413;SDS011;4244;48.684;9.028;2023-06-22T08:08:30;8.40;;;6.83;;
8413;SDS011;4244;48.684;9.028;2023-06-22T08:10:56;7.70;;;6.70;;
8413;SDS011;4244;48.684;9.028;2023-06-22T08:13:22;8.20;;;7.40;;
8413;SDS011;4244;48.684;9.028;2023-06-22T08:15:48;7.80;;;7.00;;
8413;SDS011;4244;48.684;9.028;2023-06-22T08:18:14;12.60;;;8.53;;
8413;SDS011;4244;48.684;9.028;2023-06-22T08:20:40;9.53;;;7.67;;
8413;SDS011;4244;48.684;9.028;2023-06-22T08:23:06;8.70;;;7.80;;
8413;SDS011;4244;48.684;9.028;2023-06-22T08:25:32;8.30;;;7.50;;
8413;SDS011;4244;48.684;9.028;2023-06-22T08:27:59;9.47;;;7.23;;
8413;SDS011;4244;48.684;9.028;2023-06-22T08:30:25;11.57;;;8.37;;
8413;SDS011;4244;48.684;9.028;2023-06-22T08:32:50;11.70;;;8.77;;
8413;SDS011;4244;48.684;9.028;2023-06-22T08:35:16;8.00;;;7.20;;
8413;SDS011;4244;48.684;9.028;2023-06-22T08:37:42;10.10;;;8.83;;
8413;SDS011;4244;48.684;9.028;2023-06-22T08:40:08;8.40;;;7.50;;
8413;SDS011;4244;48.684;9.028;2023-06-22T08:42:36;9.37;;;8.40;;
8413;SDS011;4244;48.684;9.028;2023-06-22T08:45:03;11.90;;;8.40;;
8413;SDS011;4244;48.684;9.028;2023-06-22T08:47:29;10.03;;;8.73;;
8413;SDS011;4244;48.684;9.028;2023-06-22T08:49:55;8.67;;;7.87;;
8413;SDS011;4244;48.684;9.028;2023-06-22T08:52:21;8.87;;;7.97;;
8413;SDS011;4244;48.684;9.028;2023-06-22T08:54:48;9.30;;;8.33;;
8413;SDS011;4244;48.684;9.028;2023-06-22T08:57:14;11.43;;;8.60;;
8413;SDS011;4244;48.684;9.028;2023-06-22T08:59:41;8.57;;;7.77;;
8413;SDS011;4244;48.684;9.028;2023-06-22T09:02:07;8.73;;;7.87;;
8413;SDS011;4244;48.684;9.028;2023-06-22T09:04:32;9.33;;;8.43;;
8413;SDS011;4244;48.684;9.028;2023-06-22T09:07:00;9.83;;;8.93;;
8413;SDS011;4244;48.684;9.028;2023-06-22T09:09:26;11.93;;;8.77;;
8413;SDS011;4244;48.684;9.028;2023-06-22T09:11:52;8.40;;;7.50;;
8413;SDS011;4244;48.684;9.028;2023-06-22T09:14:17;13.63;;;8.30;;
8413;SDS011;4244;48.684;9.028;2023-06-22T09:16:43;12.23;;;7.90;;
8413;SDS011;4244;48.684;9.028;2023-06-22T09:19:09;11.50;;;7.67;;
8413;SDS011;4244;48.684;9.028;2023-06-22T09:21:35;10.10;;;8.40;;
8413;SDS011;4244;48.684;9.028;2023-06-22T09:24:01;16.63;;;8.63;;
8413;SDS011;4244;48.684;9.028;2023-06-22T09:26:27;14.30;;;8.20;;
8413;SDS011;4244;48.684;9.028;2023-06-22T09:28:54;10.87;;;8.23;;
8413;SDS011;4244;48.684;9.028;2023-06-22T09:31:25;10.20;;;8.90;;
8413;SDS011;4244;48.684;9.028;2023-06-22T09:33:54;9.60;;;8.60;;
8413;SDS011;4244;48.684;9.028;2023-06-22T09:36:26;8.60;;;7.70;;
8413;SDS011;4244;48.684;9.028;2023-06-22T09:38:51;10.20;;;8.13;;
8413;SDS011;4244;48.684;9.028;2023-06-22T09:41:21;9.40;;;8.50;;
8413;SDS011;4244;48.684;9.028;2023-06-22T09:43:47;9.80;;;8.80;;
8413;SDS011;4244;48.684;9.028;2023-06-22T09:46:15;16.20;;;8.90;;
8413;SDS011;4244;48.684;9.028;2023-06-22T09:48:41;10.20;;;8.93;;
8413;SDS011;4244;48.684;9.028;2023-06-22T09:51:07;10.33;;;8.60;;
8413;SDS011;4244;48.684;9.028;2023-06-22T09:53:32;9.83;;;8.10;;
8413;SDS011;4244;48.684;9.028;2023-06-22T09:55:59;9.43;;;8.60;;
8413;SDS011;4244;48.684;9.028;2023-06-22T09:58:26;9.83;;;8.27;;
8413;SDS011;4244;48.684;9.028;2023-06-22T10:00:52;10.23;;;8.83;;
8413;SDS011;4244;48.684;9.028;2023-06-22T10:03:19;11.00;;;7.37;;
8413;SDS011;4244;48.684;9.028;2023-06-22T10:05:45;8.87;;;8.07;;
8413;SDS011;4244;48.684;9.028;2023-06-22T10:08:11;11.87;;;9.33;;
8413;SDS011;4244;48.684;9.028;2023-06-22T10:10:36;9.73;;;8.30;;
8413;SDS011;4244;48.684;9.028;2023-06-22T10:13:03;9.67;;;8.53;;
8413;SDS011;4244;48.684;9.028;2023-06-22T10:15:37;10.93;;;8.63;;
8413;SDS011;4244;48.684;9.028;2023-06-22T10:18:03;13.90;;;9.23;;
8413;SDS011;4244;48.684;9.028;2023-06-22T10:20:29;12.07;;;10.10;;
8413;SDS011;4244;48.684;9.028;2023-06-22T10:22:55;9.77;;;8.87;;
8413;SDS011;4244;48.684;9.028;2023-06-22T10:25:20;9.20;;;8.30;;
8413;SDS011;4244;48.684;9.028;2023-06-22T10:27:46;8.80;;;7.90;;
8413;SDS011;4244;48.684;9.028;2023-06-22T10:30:12;15.03;;;8.47;;
8413;SDS011;4244;48.684;9.028;2023-06-22T10:32:39;9.27;;;8.30;;
8413;SDS011;4244;48.684;9.028;2023-06-22T10:35:05;12.23;;;8.30;;
8413;SDS011;4244;48.684;9.028;2023-06-22T10:37:31;12.50;;;8.77;;
8413;SDS011;4244;48.684;9.028;2023-06-22T10:39:56;9.33;;;8.30;;
8413;SDS011;4244;48.684;9.028;2023-06-22T10:42:22;11.20;;;8.80;;
8413;SDS011;4244;48.684;9.028;2023-06-22T10:44:48;9.00;;;8.07;;
8413;SDS011;4244;48.684;9.028;2023-06-22T10:47:13;9.90;;;8.87;;
8413;SDS011;4244;48.684;9.028;2023-06-22T10:49:39;9.40;;;8.53;;
8413;SDS011;4244;48.684;9.028;2023-06-22T10:52:08;12.47;;;8.57;;
8413;SDS011;4244;48.684;9.028;2023-06-22T10:54:34;13.10;;;8.10;;
8413;SDS011;4244;48.684;9.028;2023-06-22T10:57:01;10.17;;;8.60;;
8413;SDS011;4244;48.684;9.028;2023-06-22T10:59:29;9.90;;;8.80;;
8413;SDS011;4244;48.684;9.028;2023-06-22T11:01:55;13.43;;;9.00;;
8413;SDS011;4244;48.684;9.028;2023-06-22T11:04:21;11.47;;;9.07;;
8413;SDS011;4244;48.684;9.028;2023-06-22T11:06:47;9.83;;;8.33;;
8413;SDS011;4244;48.684;9.028;2023-06-22T11:09:13;9.63;;;8.73;;
8413;SDS011;4244;48.684;9.028;2023-06-22T11:11:44;9.20;;;7.90;;
8413;SDS011;4244;48.684;9.028;2023-06-22T11:14:10;11.40;;;8.57;;
8413;SDS011;4244;48.684;9.028;2023-06-22T11:16:35;9.80;;;8.50;;
8413;SDS011;4244;48.684;9.028;2023-06-22T11:19:01;10.77;;;9.67;;
8413;SDS011;4244;48.684;9.028;2023-06-22T11:21:28;10.00;;;8.67;;
8413;SDS011;4244;48.684;9.028;2023-06-22T11:23:54;8.90;;;8.00;;
8413;SDS011;4244;48.684;9.028;2023-06-22T11:26:19;8.97;;;8.07;;
8413;SDS011;4244;48.684;9.028;2023-06-22T11:28:46;18.03;;;10.00;;
8413;SDS011;4244;48.684;9.028;2023-06-22T11:31:11;11.00;;;8.80;;
8413;SDS011;4244;48.684;9.028;2023-06-22T11:33:37;12.70;;;9.27;;
8413;SDS011;4244;48.684;9.028;2023-06-22T11:36:03;10.13;;;7.90;;
8413;SDS011;4244;48.684;9.028;2023-06-22T11:38:28;13.20;;;10.00;;
8413;SDS011;4244;48.684;9.028;2023-06-22T11:40:55;9.70;;;8.30;;
8413;SDS011;4244;48.684;9.028;2023-06-22T11:43:22;11.77;;;8.93;;
8413;SDS011;4244;48.684;9.028;2023-06-22T11:45:48;10.37;;;8.27;;
8413;SDS011;4244;48.684;9.028;2023-06-22T11:48:14;10.70;;;8.37;;
8413;SDS011;4244;48.684;9.028;2023-06-22T11:50:39;11.50;;;8.90;;
8413;SDS011;4244;48.684;9.028;2023-06-22T11:53:05;9.57;;;8.00;;
8413;SDS011;4244;48.684;9.028;2023-06-22T11:55:30;11.10;;;8.90;;
8413;SDS011;4244;48.684;9.028;2023-06-22T11:57:56;12.37;;;9.23;;
8413;SDS011;4244;48.684;9.028;2023-06-22T12:00:25;10.70;;;9.30;;
8413;SDS011;4244;48.684;9.028;2023-06-22T12:02:51;9.90;;;8.87;;
8413;SDS011;4244;48.684;9.028;2023-06-22T12:05:19;12.10;;;9.90;;
8413;SDS011;4244;48.684;9.028;2023-06-22T12:07:46;11.90;;;9.37;;
8413;SDS011;4244;48.684;9.028;2023-06-22T12:10:12;11.77;;;9.30;;
8413;SDS011;4244;48.684;9.028;2023-06-22T12:12:37;10.50;;;9.37;;
8413;SDS011;4244;48.684;9.028;2023-06-22T12:15:03;12.27;;;10.23;;
8413;SDS011;4244;48.684;9.028;2023-06-22T12:17:30;11.33;;;10.23;;
8413;SDS011;4244;48.684;9.028;2023-06-22T12:19:56;9.90;;;8.90;;
8413;SDS011;4244;48.684;9.028;2023-06-22T12:22:21;11.53;;;8.40;;
8413;SDS011;4244;48.684;9.028;2023-06-22T12:24:47;11.93;;;9.70;;
8413;SDS011;4244;48.684;9.028;2023-06-22T12:27:13;10.90;;;9.80;;
8413;SDS011;4244;48.684;9.028;2023-06-22T12:29:41;13.40;;;10.60;;
8413;SDS011;4244;48.684;9.028;2023-06-22T12:32:10;10.90;;;9.80;;
8413;SDS011;4244;48.684;9.028;2023-06-22T12:34:38;10.17;;;9.17;;
8413;SDS011;4244;48.684;9.028;2023-06-22T12:37:04;12.53;;;10.33;;
8413;SDS011;4244;48.684;9.028;2023-06-22T12:39:30;13.93;;;9.67;;
8413;SDS011;4244;48.684;9.028;2023-06-22T12:41:56;15.00;;;10.40;;
8413;SDS011;4244;48.684;9.028;2023-06-22T12:44:22;12.17;;;10.03;;
8413;SDS011;4244;48.684;9.028;2023-06-22T12:46:48;11.90;;;10.00;;
8413;SDS011;4244;48.684;9.028;2023-06-22T12:49:13;10.73;;;9.60;;
8413;SDS011;4244;48.684;9.028;2023-06-22T12:51:40;10.83;;;9.33;;
8413;SDS011;4244;48.684;9.028;2023-06-22T12:54:07;10.27;;;9.27;;
8413;SDS011;4244;48.684;9.028;2023-06-22T12:56:33;12.60;;;10.60;;
8413;SDS011;4244;48.684;9.028;2023-06-22T12:58:58;11.73;;;10.03;;
8413;SDS011;4244;48.684;9.028;2023-06-22T13:01:26;13.30;;;9.30;;
8413;SDS011;4244;48.684;9.028;2023-06-22T13:03:52;11.37;;;9.53;;
8413;SDS011;4244;48.684;9.028;2023-06-22T13:06:18;11.73;;;10.53;;
8413;SDS011;4244;48.684;9.028;2023-06-22T13:08:44;12.30;;;10.73;;
8413;SDS011;4244;48.684;9.028;2023-06-22T13:11:09;11.43;;;8.63;;
8413;SDS011;4244;48.684;9.028;2023-06-22T13:13:35;16.40;;;10.63;;
8413;SDS011;4244;48.684;9.028;2023-06-22T13:16:01;10.23;;;9.13;;
8413;SDS011;4244;48.684;9.028;2023-06-22T13:18:30;9.53;;;8.70;;
8413;SDS011;4244;48.684;9.028;2023-06-22T13:20:55;12.03;;;10.57;;
8413;SDS011;4244;48.684;9.028;2023-06-22T13:23:23;11.03;;;9.93;;
8413;SDS011;4244;48.684;9.028;2023-06-22T13:25:48;9.50;;;8.60;;
8413;SDS011;4244;48.684;9.028;2023-06-22T13:28:14;12.40;;;8.70;;
8413;SDS011;4244;48.684;9.028;2023-06-22T13:30:41;10.90;;;9.10;;
8413;SDS011;4244;48.684;9.028;2023-06-22T13:33:07;15.03;;;9.90;;
8413;SDS011;4244;48.684;9.028;2023-06-22T13:35:33;13.80;;;9.50;;
8413;SDS011;4244;48.684;9.028;2023-06-22T13:38:00;10.77;;;8.90;;
8413;SDS011;4244;48.684;9.028;2023-06-22T13:40:26;10.83;;;9.00;;
8413;SDS011;4244;48.684;9.028;2023-06-22T13:42:51;12.97;;;9.17;;
8413;SDS011;4244;48.684;9.028;2023-06-22T13:45:17;14.27;;;9.77;;
8413;SDS011;4244;48.684;9.028;2023-06-22T13:47:44;11.13;;;8.93;;
8413;SDS011;4244;48.684;9.028;2023-06-22T13:50:09;10.73;;;9.07;;
8413;SDS011;4244;48.684;9.028;2023-06-22T13:52:37;13.73;;;8.70;;
8413;SDS011;4244;48.684;9.028;2023-06-22T13:55:03;10.17;;;8.50;;
8413;SDS011;4244;48.684;9.028;2023-06-22T13:57:30;9.37;;;8.33;;
8413;SDS011;4244;48.684;9.028;2023-06-22T13:59:56;14.43;;;9.20;;
8413;SDS011;4244;48.684;9.028;2023-06-22T14:02:21;12.20;;;8.80;;
8413;SDS011;4244;48.684;9.028;2023-06-22T14:04:47;10.30;;;7.80;;
8413;SDS011;4244;48.684;9.028;2023-06-22T14:07:13;11.30;;;8.50;;
8413;SDS011;4244;48.684;9.028;2023-06-22T14:09:38;16.27;;;9.93;;
8413;SDS011;4244;48.684;9.028;2023-06-22T14:12:05;10.53;;;9.37;;
8413;SDS011;4244;48.684;9.028;2023-06-22T14:14:31;12.10;;;8.30;;
8413;SDS011;4244;48.684;9.028;2023-06-22T14:16:58;11.83;;;7.90;;
8413;SDS011;4244;48.684;9.028;2023-06-22T14:19:27;13.10;;;9.10;;
8413;SDS011;4244;48.684;9.028;2023-06-22T14:21:55;9.57;;;7.10;;
8413;SDS011;4244;48.684;9.028;2023-06-22T14:24:22;12.70;;;6.90;;
8413;SDS011;4244;48.684;9.028;2023-06-22T14:26:48;8.73;;;6.63;;
8413;SDS011;4244;48.684;9.028;2023-06-22T14:29:14;15.40;;;5.87;;
8413;SDS011;4244;48.684;9.028;2023-06-22T14:31:40;10.40;;;6.33;;
8413;SDS011;4244;48.684;9.028;2023-06-22T14:34:06;7.30;;;5.00;;
8413;SDS011;4244;48.684;9.028;2023-06-22T14:36:31;11.90;;;5.43;;
8413;SDS011;4244;48.684;9.028;2023-06-22T14:38:57;8.80;;;5.27;;
8413;SDS011;4244;48.684;9.028;2023-06-22T14:41:25;9.10;;;5.10;;
8413;SDS011;4244;48.684;9.028;2023-06-22T14:43:51;8.90;;;5.10;;
8413;SDS011;4244;48.684;9.028;2023-06-22T14:46:19;7.33;;;4.47;;
8413;SDS011;4244;48.684;9.028;2023-06-22T14:48:48;9.10;;;5.60;;
8413;SDS011;4244;48.684;9.028;2023-06-22T14:51:13;10.23;;;5.17;;
8413;SDS011;4244;48.684;9.028;2023-06-22T14:53:40;13.90;;;6.30;;
8413;SDS011;4244;48.684;9.028;2023-06-22T14:56:05;8.30;;;5.53;;
8413;SDS011;4244;48.684;9.028;2023-06-22T14:58:31;11.93;;;6.10;;
8413;SDS011;4244;48.684;9.028;2023-06-22T15:01:03;10.63;;;4.93;;
8413;SDS011;4244;48.684;9.028;2023-06-22T15:03:33;8.10;;;4.80;;
8413;SDS011;4244;48.684;9.028;2023-06-22T15:06:00;10.07;;;5.10;;
8413;SDS011;4244;48.684;9.028;2023-06-22T15:08:26;10.53;;;4.73;;
8413;SDS011;4244;48.684;9.028;2023-06-22T15:10:52;12.53;;;5.57;;